sensor_id;sensor_type;location;lat;lon;timestamp;P1;durP1;ratioP1;P2;durP2;ratioP2
26965;SDS011;14522;52.068;4.414;2023-01-29T00:01:17;11.80;;;6.05;;
26965;SDS011;14522;52.068;4.414;2023-01-29T00:03:43;8.30;;;5.20;;
26965;SDS011;14522;52.068;4.414;2023-01-29T00:06:11;7.78;;;5.18;;
26965;SDS011;14522;52.068;4.414;2023-01-29T00:08:38;8.77;;;4.97;;
26965;SDS011;14522;52.068;4.414;2023-01-29T00:11:04;9.65;;;5.75;;
26965;SDS011;14522;52.068;4.414;2023-01-29T00:13:31;7.90;;;4.88;;
26965;SDS011;14522;52.068;4.414;2023-01-29T00:15:57;13.00;;;6.03;;
26965;SDS011;14522;52.068;4.414;2023-01-29T00:18:24;10.93;;;5.53;;
26965;SDS011;14522;52.068;4.414;2023-01-29T00:20:51;8.13;;;5.43;;
26965;SDS011;14522;52.068;4.414;2023-01-29T00:23:18;8.18;;;4.95;;
26965;SDS011;14522;52.068;4.414;2023-01-29T00:25:44;8.05;;;5.07;;
26965;SDS011;14522;52.068;4.414;2023-01-29T00:28:11;8.52;;;4.93;;
26965;SDS011;14522;52.068;4.414;2023-01-29T00:30:38;11.30;;;5.00;;
26965;SDS011;14522;52.068;4.414;2023-01-29T00:33:04;7.45;;;4.95;;
26965;SDS011;14522;52.068;4.414;2023-01-29T00:35:31;8.25;;;5.07;;
26965;SDS011;14522;52.068;4.414;2023-01-29T00:37:57;9.07;;;5.60;;
26965;SDS011;14522;52.068;4.414;2023-01-29T00:40:24;11.00;;;5.82;;
26965;SDS011;14522;52.068;4.414;2023-01-29T00:42:50;8.93;;;6.00;;
26965;SDS011;14522;52.068;4.414;2023-01-29T00:45:36;9.32;;;5.80;;
26965;SDS011;14522;52.068;4.414;2023-01-29T00:48:03;10.65;;;5.70;;
26965;SDS011;14522;52.068;4.414;2023-01-29T00:50:29;9.80;;;5.63;;
26965;SDS011;14522;52.068;4.414;2023-01-29T00:52:56;8.98;;;5.88;;
26965;SDS011;14522;52.068;4.414;2023-01-29T00:55:23;9.32;;;6.70;;
26965;SDS011;14522;52.068;4.414;2023-01-29T00:57:49;8.70;;;6.30;;
26965;SDS011;14522;52.068;4.414;2023-01-29T01:00:17;10.32;;;6.93;;
26965;SDS011;14522;52.068;4.414;2023-01-29T01:02:44;9.40;;;5.82;;
26965;SDS011;14522;52.068;4.414;2023-01-29T01:05:29;9.05;;;6.13;;
26965;SDS011;14522;52.068;4.414;2023-01-29T01:07:56;9.57;;;6.50;;
26965;SDS011;14522;52.068;4.414;2023-01-29T01:10:24;9.00;;;5.72;;
26965;SDS011;14522;52.068;4.414;2023-01-29T01:12:58;7.90;;;5.30;;
26965;SDS011;14522;52.068;4.414;2023-01-29T01:15:29;11.57;;;6.38;;
26965;SDS011;14522;52.068;4.414;2023-01-29T01:17:57;8.93;;;6.07;;
26965;SDS011;14522;52.068;4.414;2023-01-29T01:20:24;10.57;;;6.20;;
26965;SDS011;14522;52.068;4.414;2023-01-29T01:22:54;13.32;;;6.53;;
26965;SDS011;14522;52.068;4.414;2023-01-29T01:25:21;8.70;;;6.38;;
26965;SDS011;14522;52.068;4.414;2023-01-29T01:27:50;9.90;;;6.65;;
26965;SDS011;14522;52.068;4.414;2023-01-29T01:30:17;10.25;;;6.78;;
26965;SDS011;14522;52.068;4.414;2023-01-29T01:32:44;8.40;;;5.97;;
26965;SDS011;14522;52.068;4.414;2023-01-29T01:35:11;11.38;;;6.45;;
26965;SDS011;14522;52.068;4.414;2023-01-29T01:37:38;10.98;;;6.97;;
26965;SDS011;14522;52.068;4.414;2023-01-29T01:40:06;10.38;;;7.38;;
26965;SDS011;14522;52.068;4.414;2023-01-29T01:42:38;14.00;;;7.20;;
26965;SDS011;14522;52.068;4.414;2023-01-29T01:45:06;13.10;;;6.95;;
26965;SDS011;14522;52.068;4.414;2023-01-29T01:48:10;11.93;;;7.57;;
26965;SDS011;14522;52.068;4.414;2023-01-29T01:53:13;11.85;;;7.78;;
26965;SDS011;14522;52.068;4.414;2023-01-29T01:55:46;15.15;;;8.50;;
26965;SDS011;14522;52.068;4.414;2023-01-29T01:58:17;13.05;;;8.27;;
26965;SDS011;14522;52.068;4.414;2023-01-29T02:00:46;11.98;;;8.20;;
26965;SDS011;14522;52.068;4.414;2023-01-29T02:03:12;17.25;;;7.82;;
26965;SDS011;14522;52.068;4.414;2023-01-29T02:05:57;12.02;;;7.50;;
26965;SDS011;14522;52.068;4.414;2023-01-29T02:08:48;12.45;;;8.75;;
26965;SDS011;14522;52.068;4.414;2023-01-29T02:11:35;12.27;;;8.00;;
26965;SDS011;14522;52.068;4.414;2023-01-29T02:14:01;12.32;;;8.50;;
26965;SDS011;14522;52.068;4.414;2023-01-29T02:16:28;15.18;;;9.15;;
26965;SDS011;14522;52.068;4.414;2023-01-29T02:18:55;13.82;;;8.57;;
26965;SDS011;14522;52.068;4.414;2023-01-29T02:28:55;14.57;;;10.02;;
26965;SDS011;14522;52.068;4.414;2023-01-29T02:31:45;16.02;;;10.40;;
26965;SDS011;14522;52.068;4.414;2023-01-29T02:37:29;13.60;;;9.25;;
26965;SDS011;14522;52.068;4.414;2023-01-29T02:40:24;15.20;;;9.32;;
26965;SDS011;14522;52.068;4.414;2023-01-29T02:43:06;15.18;;;9.55;;
26965;SDS011;14522;52.068;4.414;2023-01-29T02:48:15;16.45;;;10.15;;
26965;SDS011;14522;52.068;4.414;2023-01-29T02:50:44;18.75;;;10.73;;
26965;SDS011;14522;52.068;4.414;2023-01-29T02:53:13;17.45;;;11.00;;
26965;SDS011;14522;52.068;4.414;2023-01-29T02:58:16;17.65;;;11.02;;
26965;SDS011;14522;52.068;4.414;2023-01-29T03:00:46;19.40;;;10.98;;
26965;SDS011;14522;52.068;4.414;2023-01-29T03:03:17;16.00;;;10.50;;
26965;SDS011;14522;52.068;4.414;2023-01-29T03:08:11;18.08;;;10.52;;
26965;SDS011;14522;52.068;4.414;2023-01-29T03:10:48;17.17;;;10.75;;
26965;SDS011;14522;52.068;4.414;2023-01-29T03:13:17;15.18;;;9.98;;
26965;SDS011;14522;52.068;4.414;2023-01-29T03:15:48;17.38;;;10.27;;
26965;SDS011;14522;52.068;4.414;2023-01-29T03:18:17;18.48;;;10.73;;
26965;SDS011;14522;52.068;4.414;2023-01-29T03:20:46;19.58;;;10.60;;
26965;SDS011;14522;52.068;4.414;2023-01-29T03:23:24;15.60;;;10.80;;
26965;SDS011;14522;52.068;4.414;2023-01-29T03:26:03;17.90;;;10.63;;
26965;SDS011;14522;52.068;4.414;2023-01-29T03:28:48;18.10;;;10.20;;
26965;SDS011;14522;52.068;4.414;2023-01-29T03:34:23;18.92;;;10.40;;
26965;SDS011;14522;52.068;4.414;2023-01-29T03:39:26;15.07;;;9.27;;
26965;SDS011;14522;52.068;4.414;2023-01-29T03:41:56;18.30;;;9.27;;
26965;SDS011;14522;52.068;4.414;2023-01-29T03:44:29;14.50;;;9.32;;
26965;SDS011;14522;52.068;4.414;2023-01-29T03:47:18;14.32;;;8.52;;
26965;SDS011;14522;52.068;4.414;2023-01-29T03:52:19;12.93;;;9.13;;
26965;SDS011;14522;52.068;4.414;2023-01-29T04:02:29;15.88;;;9.73;;
26965;SDS011;14522;52.068;4.414;2023-01-29T04:04:58;14.43;;;9.52;;
26965;SDS011;14522;52.068;4.414;2023-01-29T04:07:25;15.18;;;9.40;;
26965;SDS011;14522;52.068;4.414;2023-01-29T04:10:00;14.32;;;8.70;;
26965;SDS011;14522;52.068;4.414;2023-01-29T04:12:39;14.27;;;8.93;;
26965;SDS011;14522;52.068;4.414;2023-01-29T04:15:08;15.95;;;9.45;;
26965;SDS011;14522;52.068;4.414;2023-01-29T04:17:36;16.52;;;9.00;;
26965;SDS011;14522;52.068;4.414;2023-01-29T04:20:04;13.45;;;8.40;;
26965;SDS011;14522;52.068;4.414;2023-01-29T04:22:32;13.30;;;9.00;;
26965;SDS011;14522;52.068;4.414;2023-01-29T04:25:02;11.50;;;8.00;;
26965;SDS011;14522;52.068;4.414;2023-01-29T04:32:51;14.50;;;9.32;;
26965;SDS011;14522;52.068;4.414;2023-01-29T04:35:28;13.88;;;9.10;;
26965;SDS011;14522;52.068;4.414;2023-01-29T04:40:41;14.98;;;9.73;;
26965;SDS011;14522;52.068;4.414;2023-01-29T04:43:20;15.75;;;8.93;;
26965;SDS011;14522;52.068;4.414;2023-01-29T04:45:59;14.77;;;9.32;;
26965;SDS011;14522;52.068;4.414;2023-01-29T04:48:31;13.95;;;8.63;;
26965;SDS011;14522;52.068;4.414;2023-01-29T04:51:06;12.73;;;8.52;;
26965;SDS011;14522;52.068;4.414;2023-01-29T04:53:47;16.15;;;9.35;;
26965;SDS011;14522;52.068;4.414;2023-01-29T04:56:17;13.60;;;8.57;;
26965;SDS011;14522;52.068;4.414;2023-01-29T04:58:46;15.27;;;8.88;;
26965;SDS011;14522;52.068;4.414;2023-01-29T05:01:15;11.95;;;8.50;;
26965;SDS011;14522;52.068;4.414;2023-01-29T05:03:42;14.65;;;9.15;;
26965;SDS011;14522;52.068;4.414;2023-01-29T05:06:09;17.02;;;9.95;;
26965;SDS011;14522;52.068;4.414;2023-01-29T05:08:36;14.98;;;8.40;;
26965;SDS011;14522;52.068;4.414;2023-01-29T05:11:04;13.27;;;9.38;;
26965;SDS011;14522;52.068;4.414;2023-01-29T05:13:31;12.52;;;8.80;;
26965;SDS011;14522;52.068;4.414;2023-01-29T05:16:01;14.13;;;9.52;;
26965;SDS011;14522;52.068;4.414;2023-01-29T05:18:30;14.25;;;9.40;;
26965;SDS011;14522;52.068;4.414;2023-01-29T05:20:56;14.15;;;9.18;;
26965;SDS011;14522;52.068;4.414;2023-01-29T05:23:24;13.07;;;9.32;;
26965;SDS011;14522;52.068;4.414;2023-01-29T05:25:51;14.00;;;9.38;;
26965;SDS011;14522;52.068;4.414;2023-01-29T05:28:17;15.15;;;8.73;;
26965;SDS011;14522;52.068;4.414;2023-01-29T05:30:48;12.13;;;8.98;;
26965;SDS011;14522;52.068;4.414;2023-01-29T05:33:19;15.50;;;9.43;;
26965;SDS011;14522;52.068;4.414;2023-01-29T05:35:45;12.82;;;9.48;;
26965;SDS011;14522;52.068;4.414;2023-01-29T05:38:12;14.63;;;9.75;;
26965;SDS011;14522;52.068;4.414;2023-01-29T05:40:38;15.10;;;10.00;;
26965;SDS011;14522;52.068;4.414;2023-01-29T05:43:06;14.93;;;10.18;;
26965;SDS011;14522;52.068;4.414;2023-01-29T05:45:39;15.98;;;10.68;;
26965;SDS011;14522;52.068;4.414;2023-01-29T05:48:05;13.88;;;10.13;;
26965;SDS011;14522;52.068;4.414;2023-01-29T05:50:31;15.68;;;10.45;;
26965;SDS011;14522;52.068;4.414;2023-01-29T05:52:58;14.10;;;9.32;;
26965;SDS011;14522;52.068;4.414;2023-01-29T05:55:26;16.67;;;9.52;;
26965;SDS011;14522;52.068;4.414;2023-01-29T05:57:52;13.88;;;9.50;;
26965;SDS011;14522;52.068;4.414;2023-01-29T06:00:19;15.88;;;9.88;;
26965;SDS011;14522;52.068;4.414;2023-01-29T06:02:45;13.85;;;8.18;;
26965;SDS011;14522;52.068;4.414;2023-01-29T06:05:12;14.48;;;10.02;;
26965;SDS011;14522;52.068;4.414;2023-01-29T06:07:38;16.63;;;10.73;;
26965;SDS011;14522;52.068;4.414;2023-01-29T06:10:18;13.10;;;10.00;;
26965;SDS011;14522;52.068;4.414;2023-01-29T06:12:45;15.65;;;9.98;;
26965;SDS011;14522;52.068;4.414;2023-01-29T06:15:11;15.40;;;10.63;;
26965;SDS011;14522;52.068;4.414;2023-01-29T06:17:40;13.40;;;10.52;;
26965;SDS011;14522;52.068;4.414;2023-01-29T06:20:07;15.02;;;10.30;;
26965;SDS011;14522;52.068;4.414;2023-01-29T06:22:33;14.18;;;9.73;;
26965;SDS011;14522;52.068;4.414;2023-01-29T06:25:00;14.45;;;9.93;;
26965;SDS011;14522;52.068;4.414;2023-01-29T06:27:26;16.30;;;10.35;;
26965;SDS011;14522;52.068;4.414;2023-01-29T06:29:53;15.55;;;10.10;;
26965;SDS011;14522;52.068;4.414;2023-01-29T06:32:19;13.02;;;9.80;;
26965;SDS011;14522;52.068;4.414;2023-01-29T06:34:45;13.93;;;8.48;;
26965;SDS011;14522;52.068;4.414;2023-01-29T06:37:14;14.88;;;9.85;;
26965;SDS011;14522;52.068;4.414;2023-01-29T06:39:41;15.25;;;10.75;;
26965;SDS011;14522;52.068;4.414;2023-01-29T06:42:07;13.68;;;10.10;;
26965;SDS011;14522;52.068;4.414;2023-01-29T06:44:34;18.13;;;10.38;;
26965;SDS011;14522;52.068;4.414;2023-01-29T06:47:00;14.85;;;10.50;;
26965;SDS011;14522;52.068;4.414;2023-01-29T06:49:26;16.35;;;10.90;;
26965;SDS011;14522;52.068;4.414;2023-01-29T06:51:53;16.63;;;11.75;;
26965;SDS011;14522;52.068;4.414;2023-01-29T06:54:19;13.93;;;10.15;;
26965;SDS011;14522;52.068;4.414;2023-01-29T06:56:45;14.30;;;10.57;;
26965;SDS011;14522;52.068;4.414;2023-01-29T06:59:12;16.75;;;11.38;;
26965;SDS011;14522;52.068;4.414;2023-01-29T07:01:39;16.95;;;10.55;;
26965;SDS011;14522;52.068;4.414;2023-01-29T07:04:07;19.17;;;10.63;;
26965;SDS011;14522;52.068;4.414;2023-01-29T07:06:33;16.90;;;11.25;;
26965;SDS011;14522;52.068;4.414;2023-01-29T07:09:00;16.52;;;11.05;;
26965;SDS011;14522;52.068;4.414;2023-01-29T07:11:26;16.33;;;10.73;;
26965;SDS011;14522;52.068;4.414;2023-01-29T07:13:53;17.75;;;11.25;;
26965;SDS011;14522;52.068;4.414;2023-01-29T07:16:19;16.33;;;10.50;;
26965;SDS011;14522;52.068;4.414;2023-01-29T07:18:45;16.23;;;10.75;;
26965;SDS011;14522;52.068;4.414;2023-01-29T07:21:12;18.15;;;11.07;;
26965;SDS011;14522;52.068;4.414;2023-01-29T07:23:38;18.67;;;10.50;;
26965;SDS011;14522;52.068;4.414;2023-01-29T07:26:05;16.13;;;11.57;;
26965;SDS011;14522;52.068;4.414;2023-01-29T07:28:35;14.82;;;10.43;;
26965;SDS011;14522;52.068;4.414;2023-01-29T07:31:03;16.27;;;11.30;;
26965;SDS011;14522;52.068;4.414;2023-01-29T07:33:30;15.73;;;11.68;;
26965;SDS011;14522;52.068;4.414;2023-01-29T07:35:56;15.02;;;11.60;;
26965;SDS011;14522;52.068;4.414;2023-01-29T07:38:22;17.95;;;11.85;;
26965;SDS011;14522;52.068;4.414;2023-01-29T07:40:50;14.65;;;11.00;;
26965;SDS011;14522;52.068;4.414;2023-01-29T07:43:16;16.40;;;11.27;;
26965;SDS011;14522;52.068;4.414;2023-01-29T07:45:43;17.25;;;12.13;;
26965;SDS011;14522;52.068;4.414;2023-01-29T07:48:10;19.45;;;12.38;;
26965;SDS011;14522;52.068;4.414;2023-01-29T07:50:37;16.83;;;11.15;;
26965;SDS011;14522;52.068;4.414;2023-01-29T07:53:03;19.20;;;12.82;;
26965;SDS011;14522;52.068;4.414;2023-01-29T07:55:31;18.75;;;11.95;;
26965;SDS011;14522;52.068;4.414;2023-01-29T07:57:59;21.10;;;12.05;;
26965;SDS011;14522;52.068;4.414;2023-01-29T08:00:25;17.20;;;12.13;;
26965;SDS011;14522;52.068;4.414;2023-01-29T08:02:52;17.10;;;11.77;;
26965;SDS011;14522;52.068;4.414;2023-01-29T08:05:18;16.77;;;11.45;;
26965;SDS011;14522;52.068;4.414;2023-01-29T08:07:44;19.33;;;13.70;;
26965;SDS011;14522;52.068;4.414;2023-01-29T08:10:26;14.35;;;11.13;;
26965;SDS011;14522;52.068;4.414;2023-01-29T08:12:56;17.88;;;12.10;;
26965;SDS011;14522;52.068;4.414;2023-01-29T08:15:22;18.52;;;12.93;;
26965;SDS011;14522;52.068;4.414;2023-01-29T08:17:49;18.98;;;12.45;;
26965;SDS011;14522;52.068;4.414;2023-01-29T08:20:23;18.83;;;13.63;;
26965;SDS011;14522;52.068;4.414;2023-01-29T08:22:49;21.67;;;12.95;;
26965;SDS011;14522;52.068;4.414;2023-01-29T08:25:23;18.17;;;12.95;;
26965;SDS011;14522;52.068;4.414;2023-01-29T08:27:50;19.60;;;12.98;;
26965;SDS011;14522;52.068;4.414;2023-01-29T08:30:16;19.58;;;13.15;;
26965;SDS011;14522;52.068;4.414;2023-01-29T08:32:43;19.45;;;12.65;;
26965;SDS011;14522;52.068;4.414;2023-01-29T08:35:10;18.08;;;12.90;;
26965;SDS011;14522;52.068;4.414;2023-01-29T08:37:36;21.02;;;13.52;;
26965;SDS011;14522;52.068;4.414;2023-01-29T08:40:02;18.77;;;13.00;;
26965;SDS011;14522;52.068;4.414;2023-01-29T08:42:29;17.70;;;9.70;;
26965;SDS011;14522;52.068;4.414;2023-01-29T08:44:55;18.98;;;13.18;;
26965;SDS011;14522;52.068;4.414;2023-01-29T08:47:22;19.00;;;12.73;;
26965;SDS011;14522;52.068;4.414;2023-01-29T08:49:48;19.85;;;13.45;;
26965;SDS011;14522;52.068;4.414;2023-01-29T08:52:14;20.65;;;13.73;;
26965;SDS011;14522;52.068;4.414;2023-01-29T08:54:41;22.55;;;13.55;;
26965;SDS011;14522;52.068;4.414;2023-01-29T08:57:07;19.38;;;13.90;;
26965;SDS011;14522;52.068;4.414;2023-01-29T08:59:33;19.88;;;14.27;;
26965;SDS011;14522;52.068;4.414;2023-01-29T09:02:00;26.33;;;15.07;;
26965;SDS011;14522;52.068;4.414;2023-01-29T09:04:26;22.55;;;14.75;;
26965;SDS011;14522;52.068;4.414;2023-01-29T09:06:53;22.00;;;14.32;;
26965;SDS011;14522;52.068;4.414;2023-01-29T09:09:19;24.25;;;15.25;;
26965;SDS011;14522;52.068;4.414;2023-01-29T09:11:45;22.75;;;14.55;;
26965;SDS011;14522;52.068;4.414;2023-01-29T09:14:12;19.80;;;13.98;;
26965;SDS011;14522;52.068;4.414;2023-01-29T09:16:39;20.40;;;14.20;;
26965;SDS011;14522;52.068;4.414;2023-01-29T09:19:06;23.67;;;15.05;;
26965;SDS011;14522;52.068;4.414;2023-01-29T09:21:33;24.55;;;14.93;;
26965;SDS011;14522;52.068;4.414;2023-01-29T09:23:59;19.77;;;14.60;;
26965;SDS011;14522;52.068;4.414;2023-01-29T09:26:26;23.13;;;14.75;;
26965;SDS011;14522;52.068;4.414;2023-01-29T09:28:52;24.35;;;14.75;;
26965;SDS011;14522;52.068;4.414;2023-01-29T09:31:18;23.27;;;14.80;;
26965;SDS011;14522;52.068;4.414;2023-01-29T09:33:45;24.90;;;15.23;;
26965;SDS011;14522;52.068;4.414;2023-01-29T09:36:12;28.23;;;16.50;;
26965;SDS011;14522;52.068;4.414;2023-01-29T09:38:38;22.05;;;14.25;;
26965;SDS011;14522;52.068;4.414;2023-01-29T09:41:13;23.98;;;15.02;;
26965;SDS011;14522;52.068;4.414;2023-01-29T09:49:10;23.98;;;15.40;;
26965;SDS011;14522;52.068;4.414;2023-01-29T09:51:39;25.33;;;15.57;;
26965;SDS011;14522;52.068;4.414;2023-01-29T09:56:49;20.67;;;14.65;;
26965;SDS011;14522;52.068;4.414;2023-01-29T09:59:17;21.38;;;15.10;;
26965;SDS011;14522;52.068;4.414;2023-01-29T10:07:04;23.48;;;15.13;;
26965;SDS011;14522;52.068;4.414;2023-01-29T10:09:54;24.40;;;16.08;;
26965;SDS011;14522;52.068;4.414;2023-01-29T10:12:42;23.95;;;16.02;;
26965;SDS011;14522;52.068;4.414;2023-01-29T10:25:17;26.23;;;15.23;;
26965;SDS011;14522;52.068;4.414;2023-01-29T10:27:53;21.65;;;15.48;;
26965;SDS011;14522;52.068;4.414;2023-01-29T10:30:33;22.67;;;15.90;;
26965;SDS011;14522;52.068;4.414;2023-01-29T10:33:03;23.40;;;15.70;;
26965;SDS011;14522;52.068;4.414;2023-01-29T10:35:31;24.17;;;15.40;;
26965;SDS011;14522;52.068;4.414;2023-01-29T10:38:01;20.17;;;14.95;;
26965;SDS011;14522;52.068;4.414;2023-01-29T10:41:10;22.88;;;15.63;;
26965;SDS011;14522;52.068;4.414;2023-01-29T10:43:29;22.75;;;15.88;;
26965;SDS011;14522;52.068;4.414;2023-01-29T10:46:07;22.27;;;15.27;;
26965;SDS011;14522;52.068;4.414;2023-01-29T10:51:41;25.30;;;15.60;;
26965;SDS011;14522;52.068;4.414;2023-01-29T10:59:34;20.50;;;15.15;;
26965;SDS011;14522;52.068;4.414;2023-01-29T11:02:07;25.48;;;16.17;;
26965;SDS011;14522;52.068;4.414;2023-01-29T11:04:38;27.77;;;15.63;;
26965;SDS011;14522;52.068;4.414;2023-01-29T11:07:04;21.80;;;15.23;;
26965;SDS011;14522;52.068;4.414;2023-01-29T11:10:13;24.05;;;15.82;;
26965;SDS011;14522;52.068;4.414;2023-01-29T11:12:25;22.60;;;15.82;;
26965;SDS011;14522;52.068;4.414;2023-01-29T11:15:13;22.60;;;14.85;;
26965;SDS011;14522;52.068;4.414;2023-01-29T11:17:59;26.05;;;15.50;;
26965;SDS011;14522;52.068;4.414;2023-01-29T11:20:26;22.98;;;15.65;;
26965;SDS011;14522;52.068;4.414;2023-01-29T11:22:53;22.83;;;15.48;;
26965;SDS011;14522;52.068;4.414;2023-01-29T11:25:20;22.50;;;15.90;;
26965;SDS011;14522;52.068;4.414;2023-01-29T11:32:43;24.02;;;15.80;;
26965;SDS011;14522;52.068;4.414;2023-01-29T11:37:39;21.13;;;13.93;;
26965;SDS011;14522;52.068;4.414;2023-01-29T11:42:45;25.08;;;16.65;;
26965;SDS011;14522;52.068;4.414;2023-01-29T11:47:54;21.65;;;15.00;;
26965;SDS011;14522;52.068;4.414;2023-01-29T11:50:23;23.60;;;16.13;;
26965;SDS011;14522;52.068;4.414;2023-01-29T11:52:50;20.75;;;13.43;;
26965;SDS011;14522;52.068;4.414;2023-01-29T11:55:20;25.30;;;16.38;;
26965;SDS011;14522;52.068;4.414;2023-01-29T11:57:51;18.77;;;12.63;;
26965;SDS011;14522;52.068;4.414;2023-01-29T12:00:22;21.48;;;15.02;;
26965;SDS011;14522;52.068;4.414;2023-01-29T12:05:22;23.70;;;14.98;;
26965;SDS011;14522;52.068;4.414;2023-01-29T12:07:50;29.40;;;16.25;;
26965;SDS011;14522;52.068;4.414;2023-01-29T12:10:36;20.83;;;12.75;;
26965;SDS011;14522;52.068;4.414;2023-01-29T12:15:29;24.38;;;15.27;;
26965;SDS011;14522;52.068;4.414;2023-01-29T12:17:58;24.77;;;15.30;;
26965;SDS011;14522;52.068;4.414;2023-01-29T12:20:28;23.80;;;14.05;;
26965;SDS011;14522;52.068;4.414;2023-01-29T12:22:58;21.73;;;15.30;;
26965;SDS011;14522;52.068;4.414;2023-01-29T12:25:34;27.90;;;15.32;;
26965;SDS011;14522;52.068;4.414;2023-01-29T12:33:35;20.73;;;14.82;;
26965;SDS011;14522;52.068;4.414;2023-01-29T12:36:23;22.42;;;15.88;;
26965;SDS011;14522;52.068;4.414;2023-01-29T12:38:51;19.70;;;14.10;;
26965;SDS011;14522;52.068;4.414;2023-01-29T12:43:48;22.23;;;14.25;;
26965;SDS011;14522;52.068;4.414;2023-01-29T12:46:23;23.63;;;14.27;;
26965;SDS011;14522;52.068;4.414;2023-01-29T12:48:51;23.00;;;13.75;;
26965;SDS011;14522;52.068;4.414;2023-01-29T12:51:19;20.98;;;13.63;;
26965;SDS011;14522;52.068;4.414;2023-01-29T12:53:49;17.25;;;12.15;;
26965;SDS011;14522;52.068;4.414;2023-01-29T12:58:52;18.73;;;13.20;;
26965;SDS011;14522;52.068;4.414;2023-01-29T13:03:51;23.58;;;13.57;;
26965;SDS011;14522;52.068;4.414;2023-01-29T13:06:24;22.27;;;13.32;;
26965;SDS011;14522;52.068;4.414;2023-01-29T13:08:53;20.90;;;13.95;;
26965;SDS011;14522;52.068;4.414;2023-01-29T13:11:24;19.98;;;13.57;;
26965;SDS011;14522;52.068;4.414;2023-01-29T13:13:53;25.40;;;15.15;;
26965;SDS011;14522;52.068;4.414;2023-01-29T13:16:22;20.92;;;13.52;;
26965;SDS011;14522;52.068;4.414;2023-01-29T13:19:04;24.08;;;14.43;;
26965;SDS011;14522;52.068;4.414;2023-01-29T13:21:35;21.90;;;14.15;;
26965;SDS011;14522;52.068;4.414;2023-01-29T13:24:03;22.10;;;13.07;;
26965;SDS011;14522;52.068;4.414;2023-01-29T13:26:30;17.95;;;12.02;;
26965;SDS011;14522;52.068;4.414;2023-01-29T13:28:57;21.08;;;14.10;;
26965;SDS011;14522;52.068;4.414;2023-01-29T13:31:27;19.42;;;12.68;;
26965;SDS011;14522;52.068;4.414;2023-01-29T13:33:58;18.20;;;12.35;;
26965;SDS011;14522;52.068;4.414;2023-01-29T13:36:26;20.33;;;13.48;;
26965;SDS011;14522;52.068;4.414;2023-01-29T13:39:01;17.13;;;11.98;;
26965;SDS011;14522;52.068;4.414;2023-01-29T13:41:32;19.95;;;13.77;;
26965;SDS011;14522;52.068;4.414;2023-01-29T13:43:59;19.48;;;12.75;;
26965;SDS011;14522;52.068;4.414;2023-01-29T13:46:26;20.33;;;13.98;;
26965;SDS011;14522;52.068;4.414;2023-01-29T13:48:53;19.92;;;12.93;;
26965;SDS011;14522;52.068;4.414;2023-01-29T13:51:24;23.00;;;13.88;;
26965;SDS011;14522;52.068;4.414;2023-01-29T13:53:55;19.80;;;13.80;;
26965;SDS011;14522;52.068;4.414;2023-01-29T13:58:58;19.88;;;13.30;;
26965;SDS011;14522;52.068;4.414;2023-01-29T14:06:53;22.10;;;13.65;;
26965;SDS011;14522;52.068;4.414;2023-01-29T14:12:30;17.27;;;11.48;;
26965;SDS011;14522;52.068;4.414;2023-01-29T14:14:59;19.42;;;12.50;;
26965;SDS011;14522;52.068;4.414;2023-01-29T14:17:26;22.17;;;12.93;;
26965;SDS011;14522;52.068;4.414;2023-01-29T14:20:00;15.82;;;11.70;;
26965;SDS011;14522;52.068;4.414;2023-01-29T14:22:27;16.48;;;11.20;;
26965;SDS011;14522;52.068;4.414;2023-01-29T14:25:02;16.73;;;11.65;;
26965;SDS011;14522;52.068;4.414;2023-01-29T14:27:30;15.63;;;9.27;;
26965;SDS011;14522;52.068;4.414;2023-01-29T14:30:00;20.30;;;11.13;;
26965;SDS011;14522;52.068;4.414;2023-01-29T14:32:27;14.80;;;9.80;;
26965;SDS011;14522;52.068;4.414;2023-01-29T14:34:57;20.42;;;12.20;;
26965;SDS011;14522;52.068;4.414;2023-01-29T14:37:30;16.02;;;11.35;;
26965;SDS011;14522;52.068;4.414;2023-01-29T14:39:58;17.92;;;12.23;;
26965;SDS011;14522;52.068;4.414;2023-01-29T14:42:34;21.67;;;12.00;;
26965;SDS011;14522;52.068;4.414;2023-01-29T14:53:02;17.17;;;11.43;;
26965;SDS011;14522;52.068;4.414;2023-01-29T14:55:38;18.45;;;10.85;;
26965;SDS011;14522;52.068;4.414;2023-01-29T14:58:05;17.35;;;10.73;;
26965;SDS011;14522;52.068;4.414;2023-01-29T15:00:33;16.45;;;10.68;;
26965;SDS011;14522;52.068;4.414;2023-01-29T15:03:01;16.77;;;9.93;;
26965;SDS011;14522;52.068;4.414;2023-01-29T15:05:31;15.82;;;9.98;;
26965;SDS011;14522;52.068;4.414;2023-01-29T15:08:05;22.13;;;11.30;;
26965;SDS011;14522;52.068;4.414;2023-01-29T15:10:43;21.65;;;10.77;;
26965;SDS011;14522;52.068;4.414;2023-01-29T15:13:16;15.35;;;9.73;;
26965;SDS011;14522;52.068;4.414;2023-01-29T15:15:50;15.95;;;9.68;;
26965;SDS011;14522;52.068;4.414;2023-01-29T15:18:28;19.33;;;11.15;;
26965;SDS011;14522;52.068;4.414;2023-01-29T15:21:03;16.27;;;10.40;;
26965;SDS011;14522;52.068;4.414;2023-01-29T15:23:32;14.88;;;10.23;;
26965;SDS011;14522;52.068;4.414;2023-01-29T15:25:59;15.25;;;9.63;;
26965;SDS011;14522;52.068;4.414;2023-01-29T15:28:27;15.77;;;10.02;;
26965;SDS011;14522;52.068;4.414;2023-01-29T15:30:56;16.77;;;10.02;;
26965;SDS011;14522;52.068;4.414;2023-01-29T15:33:24;16.02;;;9.93;;
26965;SDS011;14522;52.068;4.414;2023-01-29T15:35:54;16.95;;;10.73;;
26965;SDS011;14522;52.068;4.414;2023-01-29T15:38:32;24.90;;;10.60;;
26965;SDS011;14522;52.068;4.414;2023-01-29T15:40:59;20.17;;;10.90;;
26965;SDS011;14522;52.068;4.414;2023-01-29T15:43:30;18.55;;;11.00;;
26965;SDS011;14522;52.068;4.414;2023-01-29T15:45:58;20.08;;;10.43;;
26965;SDS011;14522;52.068;4.414;2023-01-29T15:48:30;19.33;;;10.90;;
26965;SDS011;14522;52.068;4.414;2023-01-29T15:50:58;17.58;;;10.82;;
26965;SDS011;14522;52.068;4.414;2023-01-29T15:53:27;17.73;;;11.10;;
26965;SDS011;14522;52.068;4.414;2023-01-29T15:55:54;18.60;;;11.50;;
26965;SDS011;14522;52.068;4.414;2023-01-29T15:58:23;22.55;;;12.00;;
26965;SDS011;14522;52.068;4.414;2023-01-29T16:00:53;18.08;;;11.40;;
26965;SDS011;14522;52.068;4.414;2023-01-29T16:03:23;17.50;;;10.88;;
26965;SDS011;14522;52.068;4.414;2023-01-29T16:05:50;19.27;;;12.02;;
26965;SDS011;14522;52.068;4.414;2023-01-29T16:08:17;20.65;;;11.40;;
26965;SDS011;14522;52.068;4.414;2023-01-29T16:10:51;20.73;;;11.60;;
26965;SDS011;14522;52.068;4.414;2023-01-29T16:13:21;17.88;;;10.05;;
26965;SDS011;14522;52.068;4.414;2023-01-29T16:15:55;21.85;;;11.52;;
26965;SDS011;14522;52.068;4.414;2023-01-29T16:18:23;17.13;;;11.48;;
26965;SDS011;14522;52.068;4.414;2023-01-29T16:20:50;24.25;;;12.18;;
26965;SDS011;14522;52.068;4.414;2023-01-29T16:23:29;18.88;;;10.80;;
26965;SDS011;14522;52.068;4.414;2023-01-29T16:26:00;17.77;;;11.52;;
26965;SDS011;14522;52.068;4.414;2023-01-29T16:28:27;23.38;;;12.10;;
26965;SDS011;14522;52.068;4.414;2023-01-29T16:30:54;23.85;;;11.40;;
26965;SDS011;14522;52.068;4.414;2023-01-29T16:33:31;27.85;;;11.43;;
26965;SDS011;14522;52.068;4.414;2023-01-29T16:35:58;19.65;;;11.00;;
26965;SDS011;14522;52.068;4.414;2023-01-29T16:38:29;18.10;;;11.65;;
26965;SDS011;14522;52.068;4.414;2023-01-29T16:41:04;18.58;;;11.20;;
26965;SDS011;14522;52.068;4.414;2023-01-29T16:48:42;22.80;;;11.55;;
26965;SDS011;14522;52.068;4.414;2023-01-29T16:51:51;20.48;;;10.93;;
26965;SDS011;14522;52.068;4.414;2023-01-29T16:53:59;21.40;;;11.38;;